Latest Weather Observations for Ballina

IDN60801

Issued at 5:02 am EDT Saturday 3 December 2016 (issued every 30 minutes, with the page automatically refreshed every 10 minutes)

About weather observations | Map of weather stations | Latest weather observations for NSW | Other Formats
Station Details ID: 058198 Name: BALLINA AIRPORT AWS Lat: -28.84 Lon: 153.56 Height: 1.3 m
Data from the previous 72 hours. | See also: Recent months at Ballina
Date/Time
EDT
Temp
°C
App
Temp
°C
Dew
Point
°C
Rel
Hum
%
Delta-T
°C
Wind Press
QNH
hPa
Press
MSL
hPa
Rain since
9am
mm
Dir  Spd
km/h
Gust
km/h
Spd
kts
Gust
kts
03/04:35am 22.5 24.9 21.5 94 0.7 NNE 11 15 6 8 1012.4 1012.4 0.0
03/04:30am 22.4 24.3 21.4 94 0.7 NNE 13 17 7 9 1012.3 1012.3 0.0
03/04:00am 22.4 23.9 21.2 93 0.8 NNE 15 19 8 10 1012.0 1012.0 0.0
03/03:30am 22.3 23.7 21.1 93 0.8 NNE 15 20 8 11 1012.0 1012.0 0.0
03/03:00am 22.4 24.2 21.2 93 0.8 NNE 13 17 7 9 1012.6 1012.6 0.0
03/02:30am 22.5 23.9 21.1 92 0.9 NNE 15 20 8 11 1012.8 1012.8 0.0
03/02:00am 22.7 24.5 21.2 91 1.0 N 13 20 7 11 1013.0 1013.0 0.0
03/01:30am 22.8 24.6 21.1 90 1.1 NNE 13 20 7 11 1013.1 1013.1 0.0
03/01:00am 23.0 24.8 21.1 89 1.2 N 13 20 7 11 1013.4 1013.4 0.0
03/12:30am 23.1 24.1 21.0 88 1.4 N 17 26 9 14 1013.3 1013.3 0.0
03/12:00am 23.2 24.1 20.9 87 1.5 N 17 22 9 12 1012.9 1012.9 0.0
 
Date/Time
EDT
Temp
°C
App
Temp
°C
Dew
Point
°C
Rel
Hum
%
Delta-T
°C
Wind Press
QNH
hPa
Press
MSL
hPa
Rain since
9am
mm
Dir  Spd
km/h
Gust
km/h
Spd
kts
Gust
kts
02/11:30pm 23.5 24.5 21.0 86 1.6 NNE 17 24 9 13 1012.9 1012.9 0.0
02/11:00pm 23.5 24.1 21.0 86 1.6 NNE 19 32 10 17 1012.8 1012.8 0.0
02/10:30pm 23.3 24.3 21.0 87 1.5 NNE 17 28 9 15 1012.6 1012.6 0.0
02/10:00pm 23.4 23.9 20.9 86 1.6 NNE 19 26 10 14 1012.1 1012.1 0.0
02/09:30pm 23.6 23.6 20.9 85 1.8 NNE 22 32 12 17 1011.8 1011.8 0.0
02/09:00pm 23.8 23.8 20.9 84 1.9 N 22 33 12 18 1011.8 1011.8 0.0
02/08:30pm 23.8 23.7 20.7 83 2.0 NNE 22 32 12 17 1011.1 1011.1 0.0
02/08:00pm 23.9 23.3 20.6 82 2.2 NNE 24 30 13 16 1010.9 1010.9 0.0
02/07:30pm 24.3 23.7 20.6 80 2.4 N 24 35 13 19 1010.4 1010.4 0.0
02/07:00pm 24.7 23.2 20.2 76 2.9 N 28 41 15 22 1010.1 1010.1 0.0
02/06:30pm 25.7 23.6 19.8 70 3.8 NNE 30 39 16 21 1009.5 1009.5 0.0
02/06:00pm 26.7 25.1 20.1 67 4.3 NNE 28 43 15 23 1009.3 1009.3 0.0
02/05:30pm 26.7 25.5 20.1 67 4.3 NNE 26 44 14 24 1008.9 1008.9 0.0
02/05:00pm 27.1 26.3 20.0 65 4.6 NNE 24 37 13 20 1008.9 1008.9 0.0
02/04:30pm 27.9 26.0 20.2 63 5.0 NNE 30 41 16 22 1008.8 1008.8 0.0
02/04:24pm 28.0 26.5 20.3 63 5.1 N 28 46 15 25 1008.8 1008.8 0.0
02/04:00pm 28.5 26.6 20.2 60 5.5 NNE 30 44 16 24 1008.6 1008.6 0.0
02/03:30pm 29.3 27.9 20.5 59 5.8 NNE 28 43 15 23 1008.9 1008.9 0.0
02/03:00pm 29.0 27.0 19.9 58 6.0 NNE 30 37 16 20 1009.2 1009.2 0.0
02/02:30pm 30.1 29.9 20.6 56 6.3 NNE 22 32 12 17 1009.3 1009.3 0.0
02/02:00pm 29.4 28.3 21.1 61 5.5 NE 28 37 15 20 1009.3 1009.3 0.0
02/01:30pm 28.8 27.6 20.0 59 5.8 ENE 26 35 14 19 1009.5 1009.5 0.0
02/01:00pm 29.6 28.8 19.3 54 6.7 NNE 22 33 12 18 1009.6 1009.6 0.0
02/12:30pm 29.7 29.2 19.1 53 6.9 NNE 20 30 11 16 1010.1 1010.1 0.0
02/12:00pm 29.7 28.3 18.8 52 7.0 NNE 24 37 13 20 1010.1 1010.1 0.0
02/11:30am 29.5 28.8 18.6 52 7.0 NNE 20 28 11 15 1010.6 1010.6 0.0
02/11:00am 28.8 27.7 17.3 49 7.3 NNE 19 28 10 15 1011.0 1011.0 0.0
02/10:30am 28.7 28.1 20.4 60 5.5 ENE 24 33 13 18 1011.0 1011.0 0.0
02/10:00am 27.6 27.2 19.4 61 5.3 NE 20 24 11 13 1011.3 1011.3 0.0
02/09:30am 27.1 27.7 17.6 56 6.0 N 11 17 6 9 1011.4 1011.4 0.0
02/09:00am 26.1 26.1 18.2 61 5.0 N 15 20 8 11 1011.4 1011.4 1.6
02/08:30am 25.1 25.7 18.5 67 4.2 N 13 17 7 9 1011.5 1011.5 1.6
02/08:00am 23.3 24.8 18.8 76 2.8 N 9 13 5 7 1011.5 1011.5 1.6
02/07:30am 20.9 24.3 19.4 91 1.0 CALM 0 6 0 3 1011.4 1011.4 1.6
02/07:00am 19.5 22.8 19.2 98 0.2 CALM 0 0 0 0 1011.2 1011.2 1.6
02/06:33am 17.9 20.5 17.6 98 0.2 CALM 0 0 0 0 1010.9 1010.9 1.6
02/06:30am 17.4 19.8 17.1 98 0.2 CALM 0 0 0 0 1010.8 1010.8 1.6
02/06:00am 16.6 18.7 16.3 98 0.2 CALM 0 0 0 0 1010.5 1010.5 1.6
02/05:30am 16.5 18.5 16.0 97 0.3 CALM 0 0 0 0 1010.3 1010.3 1.6
02/05:17am 17.4 19.8 17.1 98 0.2 CALM 0 0 0 0 1010.2 1010.2 1.6
02/05:00am 17.3 19.7 17.0 98 0.2 CALM 0 0 0 0 1010.1 1010.1 1.6
02/04:44am 17.2 19.5 16.7 97 0.3 CALM 0 0 0 0 1009.8 1009.8 1.6
02/04:30am 17.1 19.3 16.6 97 0.3 CALM 0 0 0 0 1009.8 1009.8 1.6
02/04:00am 17.8 20.3 17.3 97 0.3 CALM 0 0 0 0 1009.8 1009.8 1.6
02/03:30am 18.1 20.7 17.5 96 0.4 CALM 0 0 0 0 1009.7 1009.7 1.6
02/03:11am 18.1 20.6 17.3 95 0.5 CALM 0 0 0 0 1009.6 1009.6 1.6
02/03:00am 18.6 21.3 17.8 95 0.5 CALM 0 0 0 0 1009.7 1009.7 1.6
02/02:57am 18.5 21.2 17.7 95 0.5 CALM 0 0 0 0 1009.7 1009.7 1.6
02/02:30am 18.6 21.1 17.3 92 0.8 CALM 0 0 0 0 1009.8 1009.8 1.6
02/02:18am 18.7 21.2 17.2 91 0.9 CALM 0 0 0 0 1009.9 1009.9 1.6
02/02:00am 19.0 21.5 17.3 90 1.0 CALM 0 0 0 0 1009.9 1009.9 1.6
02/01:30am 20.3 23.3 18.4 89 1.2 CALM 0 0 0 0 1010.0 1010.0 1.6
02/01:00am 20.8 22.2 18.6 87 1.4 NNE 9 11 5 6 1010.2 1010.2 1.6
02/12:30am 21.8 23.7 19.0 84 1.8 N 7 11 4 6 1010.5 1010.5 1.6
02/12:00am 22.2 23.4 19.0 82 2.0 NNE 11 15 6 8 1010.6 1010.6 1.6
 
Date/Time
EDT
Temp
°C
App
Temp
°C
Dew
Point
°C
Rel
Hum
%
Delta-T
°C
Wind Press
QNH
hPa
Press
MSL
hPa
Rain since
9am
mm
Dir  Spd
km/h
Gust
km/h
Spd
kts
Gust
kts
01/11:30pm 22.4 22.8 19.0 81 2.2 N 15 20 8 11 1010.7 1010.7 1.6
01/11:00pm 22.6 22.1 19.2 81 2.2 N 20 32 11 17 1010.8 1010.8 1.6
01/10:30pm 22.7 21.5 19.3 81 2.2 N 24 37 13 20 1011.1 1011.1 1.6
01/10:00pm 22.4 21.7 19.4 83 1.9 N 22 33 12 18 1011.0 1011.0 1.6
01/09:30pm 22.4 21.8 18.8 80 2.3 N 20 30 11 16 1010.8 1010.8 1.6
01/09:00pm 22.3 19.8 18.1 77 2.6 N 28 43 15 23 1010.6 1010.6 1.6
01/08:30pm 22.5 21.0 19.5 83 1.9 NNE 26 41 14 22 1010.1 1010.1 1.6
01/08:00pm 22.7 21.5 20.0 85 1.7 NNE 26 37 14 20 1009.8 1009.8 1.6
01/07:30pm 23.0 21.4 20.1 84 1.9 NNE 28 41 15 22 1009.3 1009.3 1.6
01/07:00pm 23.1 21.8 19.9 82 2.1 NNE 26 44 14 24 1008.7 1008.7 1.6
01/06:30pm 23.0 21.7 19.0 78 2.5 NE 24 37 13 20 1008.2 1008.2 1.6
01/06:18pm 23.0 23.0 19.8 82 2.1 ENE 19 26 10 14 1008.2 1008.2 1.6
01/06:02pm 23.2 22.2 19.6 80 2.3 N 24 37 13 20 1008.1 1008.1 1.4
01/06:00pm 23.4 21.8 19.3 78 2.6 N 26 44 14 24 1007.9 1007.9 1.0
01/05:49pm 23.9 22.1 19.6 77 2.8 N 28 46 15 25 1006.1 1006.1 0.0
01/05:30pm 24.1 22.5 19.2 74 3.1 NNE 26 35 14 19 1005.9 1005.9 0.0
01/05:00pm 24.0 21.1 19.3 75 3.0 NNE 33 54 18 29 1006.2 1006.2 0.0
01/04:34pm 23.7 20.2 18.8 74 3.1 NNE 35 57 19 31 1006.3 1006.3 0.0
01/04:30pm 23.6 20.1 18.7 74 3.1 NNE 35 50 19 27 1006.3 1006.3 0.0
01/04:01pm 24.6 21.2 17.8 66 4.3 NNE 32 50 17 27 1007.3 1007.3 0.0
01/04:00pm 24.7 21.7 17.7 65 4.4 NNE 30 46 16 25 1007.4 1007.4 0.0
01/03:30pm 26.8 22.8 18.6 60 5.2 NNE 37 56 20 30 1006.7 1006.7 0.0
01/03:29pm 27.0 23.0 18.6 60 5.4 NNE 37 56 20 30 1006.7 1006.7 0.0
01/03:00pm 27.5 24.8 19.3 61 5.3 NNE 32 48 17 26 1007.5 1007.5 0.0
01/02:30pm 26.3 23.0 18.4 61 5.0 NNE 33 52 18 28 1007.8 1007.8 0.0
01/02:07pm 26.5 23.1 18.1 60 5.3 NNE 33 52 18 28 1007.8 1007.8 0.0
01/02:00pm 27.4 24.4 18.7 59 5.6 NNE 32 44 17 24 1007.9 1007.9 0.0
01/01:30pm 27.0 24.6 18.3 59 5.5 N 28 37 15 20 1008.8 1008.8 0.0
01/01:00pm 29.0 26.5 18.1 51 7.0 NNE 28 44 15 24 1008.6 1008.6 0.0
01/12:30pm 27.8 24.7 18.8 58 5.8 NE 33 43 18 23 1008.9 1008.9 0.0
01/12:00pm 28.9 26.4 18.9 54 6.5 NE 30 37 16 20 1009.6 1009.6 0.0
01/11:30am 28.5 26.6 18.6 55 6.4 NE 26 32 14 17 1010.1 1010.1 0.0
01/11:00am 28.5 28.0 19.2 57 6.0 NE 20 32 11 17 1010.5 1010.5 0.0
01/10:30am 27.8 28.7 18.5 57 5.9 NE 11 22 6 12 1010.8 1010.8 0.0
01/10:00am 26.3 26.9 18.7 63 4.9 NE 13 20 7 11 1011.3 1011.3 0.0
01/09:30am 24.5 25.3 18.2 68 4.0 ENE 11 17 6 9 1011.4 1011.4 0.0
01/09:00am 23.9 23.7 17.6 68 3.9 E 15 19 8 10 1011.5 1011.5 0.2
01/08:30am 23.7 24.9 17.4 68 3.9 SSE 7 13 4 7 1011.7 1011.7 0.2
01/08:00am 23.2 25.4 17.4 70 3.6 E 2 7 1 4 1011.7 1011.7 0.2
01/07:30am 21.2 23.8 17.4 79 2.3 CALM 0 0 0 0 1011.4 1011.4 0.2
01/07:00am 19.3 21.7 17.1 87 1.3 CALM 0 2 0 1 1011.2 1011.2 0.2
01/06:30am 17.8 20.1 16.7 93 0.7 CALM 0 0 0 0 1011.0 1011.0 0.2
01/06:00am 17.1 18.8 16.1 94 0.6 NNW 2 7 1 4 1010.8 1010.8 0.2
01/05:30am 17.2 17.6 16.4 95 0.5 N 9 9 5 5 1010.8 1010.8 0.2
01/05:00am 17.7 18.7 16.9 95 0.5 N 7 9 4 5 1010.5 1010.5 0.2
01/04:30am 16.9 17.3 15.4 91 0.9 ENE 7 11 4 6 1010.3 1010.3 0.2
01/04:00am 18.4 19.5 17.2 93 0.7 NW 7 13 4 7 1009.9 1009.9 0.2
01/03:30am 17.8 17.9 16.5 92 0.8 W 11 11 6 6 1010.5 1010.5 0.2
01/03:00am 18.7 19.5 17.2 91 0.9 WNW 9 13 5 7 1010.9 1010.9 0.2
01/02:30am 19.0 20.3 17.5 91 0.9 NNW 7 11 4 6 1011.1 1011.1 0.2
01/02:00am 19.0 20.0 17.7 92 0.8 NNW 9 11 5 6 1011.1 1011.1 0.2
01/01:30am 18.8 21.2 17.1 90 1.0 CALM 0 6 0 3 1011.5 1011.5 0.2
01/01:00am 19.7 21.7 17.8 89 1.2 NW 4 9 2 5 1011.6 1011.6 0.2
01/12:30am 19.8 19.7 17.9 89 1.2 ENE 15 17 8 9 1011.4 1011.4 0.2
01/12:00am 20.5 22.6 18.1 86 1.5 WNW 4 7 2 4 1013.1 1013.1 0.2
 
Date/Time
EDT
Temp
°C
App
Temp
°C
Dew
Point
°C
Rel
Hum
%
Delta-T
°C
Wind Press
QNH
hPa
Press
MSL
hPa
Rain since
9am
mm
Dir  Spd
km/h
Gust
km/h
Spd
kts
Gust
kts
30/11:30pm 20.8 20.7 17.8 83 1.9 SW 15 22 8 12 1014.1 1014.1 0.2
30/11:00pm 20.6 21.5 18.4 87 1.4 WSW 11 20 6 11 1013.6 1013.6 0.2
30/10:30pm 19.6 20.9 17.6 88 1.2 WNW 7 9 4 5 1012.6 1012.6 0.2
30/10:00pm 20.0 22.3 17.8 87 1.4 SSE 2 6 1 3 1012.4 1012.4 0.2
30/09:30pm 20.7 20.9 17.7 83 1.8 S 13 19 7 10 1011.9 1011.9 0.2
30/09:00pm 21.3 20.8 17.9 81 2.1 N 17 20 9 11 1010.9 1010.9 0.2
30/08:30pm 21.4 20.9 18.6 84 1.8 N 19 28 10 15 1011.5 1011.5 0.2
30/08:00pm 22.8 23.2 18.1 75 2.9 NW 13 15 7 8 1012.5 1012.5 0.0
30/07:30pm 23.2 24.3 18.9 77 2.7 W 11 13 6 7 1012.5 1012.5 0.0
30/07:00pm 23.6 24.6 18.7 74 3.1 NNE 11 17 6 9 1011.8 1011.8 0.0
30/06:30pm 24.5 24.9 18.9 71 3.6 NNE 15 20 8 11 1011.0 1011.0 0.0
30/06:00pm 23.7 24.5 19.0 75 3.0 N 13 17 7 9 1011.5 1011.5 0.0
30/05:30pm 23.7 22.8 19.0 75 3.0 NE 22 30 12 16 1010.2 1010.2 0.0
30/05:00pm 23.6 24.0 18.9 75 3.0 NE 15 24 8 13 1010.3 1010.3 0.0
30/04:30pm 24.0 24.1 18.4 71 3.5 ENE 15 19 8 10 1010.5 1010.5 0.0
30/04:00pm 24.9 24.7 18.6 68 4.0 ENE 17 24 9 13 1009.8 1009.8 0.0
30/03:30pm 24.7 23.8 17.7 65 4.4 E 19 24 10 13 1010.1 1010.1 0.0
30/03:00pm 25.8 25.0 18.0 62 4.9 ENE 19 26 10 14 1010.3 1010.3 0.0
30/02:30pm 25.9 24.4 16.7 57 5.7 ENE 20 28 11 15 1010.2 1010.2 0.0
30/02:00pm 26.4 25.5 16.9 56 5.9 ENE 17 26 9 14 1010.3 1010.3 0.0
30/01:30pm 25.6 24.2 15.6 54 6.1 ESE 17 24 9 13 1010.8 1010.8 0.0
30/01:00pm 27.0 26.4 16.6 53 6.4 E 15 20 8 11 1011.4 1011.4 0.0
30/12:30pm 26.0 24.6 14.5 49 6.9 ENE 15 24 8 13 1011.7 1011.7 0.0
30/12:00pm 26.7 25.6 16.3 53 6.4 SE 17 24 9 13 1012.2 1012.2 0.0
30/11:30am 26.2 24.8 15.6 52 6.4 ESE 17 24 9 13 1012.3 1012.3 0.0
30/11:00am 26.3 24.8 15.4 51 6.6 ESE 17 22 9 12 1012.2 1012.2 0.0
30/10:30am 26.4 24.9 15.4 50 6.7 E 17 24 9 13 1012.0 1012.0 0.0
30/10:00am 26.5 27.4 16.7 55 6.1 SSW 7 15 4 8 1012.2 1012.2 0.0
30/09:30am 25.7 26.4 15.7 54 6.1 E 6 11 3 6 1012.2 1012.2 0.0
30/09:00am 24.8 25.8 14.3 52 6.2 N 2 7 1 4 1012.4 1012.4 0.0
30/08:30am 23.6 25.1 14.6 57 5.3 CALM 0 0 0 0 1012.4 1012.4 0.0
30/08:00am 23.2 24.6 15.5 62 4.6 ENE 2 6 1 3 1012.3 1012.3 0.0
30/07:30am 22.2 24.3 16.2 69 3.6 CALM 0 0 0 0 1012.3 1012.3 0.0
30/07:00am 20.5 22.8 16.7 79 2.3 CALM 0 0 0 0 1011.8 1011.8 0.0
30/06:30am 17.8 19.7 15.8 88 1.2 CALM 0 0 0 0 1011.6 1011.6 0.0
30/06:00am 16.7 17.0 15.1 90 0.9 NW 7 9 4 5 1011.4 1011.4 0.0
30/05:30am 17.4 18.3 15.2 87 1.3 WSW 4 9 2 5 1011.1 1011.1 0.0

Other Formats:

Comma delimited format used in spreadsheet applications
http://www.bom.gov.au/fwo/IDN60801/IDN60801.94596.axf

JavaScript Object Notation format (JSON) in row-major order
http://www.bom.gov.au/fwo/IDN60801/IDN60801.94596.json